AirNav   Free Bose QuietComfort 20
 
 1221 users online  

UT39 A A Helicopters Inc Heliport
North Salt Lake, Utah, USA

GOING TO NORTH SALT LAKE?


FAA INFORMATION EFFECTIVE 05 DECEMBER 2019

Location

FAA Identifier: UT39
Lat/Long: 40-51-29.8020N 111-56-04.7800W
40-51.496700N 111-56.079667W
40.8582783,-111.9346611
(estimated)
Elevation: 4234 ft. / 1291 m (estimated)
Variation: 15E (1985)
From city: 1 mile NW of NORTH SALT LAKE, UT
Time zone: UTC -7 (UTC -6 during Daylight Saving Time)
Zip code: 84087

Heliport Operations

Heliport use: Private use. Permission required prior to landing
Activation date: 01/1980
Control tower: no
ARTCC: SALT LAKE CITY CENTER
FSS: CEDAR CITY FLIGHT SERVICE STATION
Attendance: MON-FRI 0800-1700
Wind indicator: yes
Segmented circle: no

Heliport Communications

WX ASOS at SLC (5 nm SW): PHONE 801-328-3567
WX AWOS-3 at U42 (15 nm S): 134.425 (801-562-0271)

Nearby radio navigation aids

VOR radial/distance  VOR name  Freq  Var
TCHr061/2.2WASATCH VORTAC116.8016E
OGDr147/23.2OGDEN VORTAC115.7014E
FFUr344/35.0FAIRFIELD VORTAC116.6016E
PVUr331/39.8PROVO VOR/DME108.4015E

Heliport Services

Runway Information

Helipad H1

Dimensions: 200 x 150 ft. / 61 x 46 m
Surface: turf
Latitude: 40-51.496700N
Longitude: 111-56.079667W
Elevation: 4234.0 ft.
Traffic pattern: leftleft

Heliport Ownership and Management from official FAA records

Ownership: Privately-owned
Owner: A A HELICOPTERS INC
1887 SOUTH 1800 WEST
WOODS CROSS, UTAH 84087
Phone 801-292-6202
Manager: WARREN R ROGERS
246 E HELM AVE, NO 11
SALT LAKE CITY, UT 84115
Phone 801-292-5041

Heliport Operational Statistics

Aircraft based on the field: 2
Helicopters: 2
    

Additional Remarks

FOR CD CTC SALT LAKE CITY APCH AT 801-325-9670.

Instrument Procedures

There are no published instrument procedures at UT39.

Some nearby airports with instrument procedures:

KSLC - Salt Lake City International Airport (5 nm SW)
U42 - South Valley Regional Airport (15 nm S)
KHIF - Hill Air Force Base (16 nm N)
KOGD - Ogden-Hinckley Airport (21 nm N)
KTVY - Bolinder Field-Tooele Valley Airport (24 nm SW)
 
Loc | Ops | Rwys | IFR | FBO | Links
Com | Nav | Svcs | Stats | Notes
Area around UT39 (A A Helicopters Inc Heliport)
 
Road maps at: MapQuest Bing Google
 
Aerial photo
No photo
 
Sectional chart

 
Airport distance calculator
Flying to A A Helicopters Inc Heliport? Find the distance to fly.

From to UT39

Sunrise and sunset
Times for 07-Dec-2019
 Local
(UTC-7)
 Zulu
(UTC)
Morning civil twilight07:0914:09
Sunrise07:4014:40
Sunset16:5923:59
Evening civil twilight17:3000:30

Current date and time
Zulu (UTC)  08-Dec-2019 02:42:37
Local (UTC-7)  07-Dec-2019 19:42:37
 
METAR
KSLC 
5nm S 
080210Z 25003KT 1/8SM R16L/1600V2000FT FG VV002 01/01 A3002 RMK AO2 T00060006 $
KU42 
15nm S 
080215Z AUTO 00000KT 1 1/4SM BKN002 OVC046 M01/M01 A3002 RMK AO1 T10151015
KHIF 
16nm N 
080158Z AUTO 11006KT 10SM FEW055 OVC110 03/00 A3000 RMK AO2 SLP162 T00311005 FZRANO $
TAF
KSLC 
5nm S 
080015Z 0800/0906 32004KT 1/4SM FG VV001 FM080400 15004KT 1/4SM FG VV001 FM080900 15006KT 2SM BR VCSH BKN007 BKN040 FM081200 17007KT 4SM -RA BR SCT020 BKN040 FM082000 34006KT 6SM BR VCSH SCT030 BKN050
KHIF 
16nm N 
072200Z 0722/0904 13004KT 9999 SCT050 QNH2999INS BECMG 0802/0803 11006KT 4800 BR FEW050 QNH2994INS BECMG 0808/0809 19009KT 8000 -RA BKN025 OVC060 620259 QNH2991INS BECMG 0814/0815 23006KT 4800 BR OVC010 620109 QNH2992INS TEMPO 0815/0901 VRB03KT 0800 FG OVC002 620029 TX04/0722Z TN02/0804Z LAST NO AMDS AFT 0800 NEXT 0814
NOTAMs
Click for the latest NOTAMs
NOTAMs are issued by the DoD/FAA and will open in a separate window not controlled by AirNav.

 

 
 

Would you like to see your business listed on this page?

 If your business provides an interesting product or service to pilots, flight crews, aircraft, or users of the A A Helicopters Inc Heliport, you should consider listing it here.  To start the listing process, click on the button below
 
Add a business
 

Other Pages about A A Helicopters Inc Heliport

Update a link
 
Copyright © AirNav, LLC. All rights reserved. Privacy Policy  Contact